sensor_id;sensor_type;location;lat;lon;timestamp;P1;durP1;ratioP1;P2;durP2;ratioP2
39314;SDS011;28703;44.412;11.918;2023-06-19T00:01:20;9.73;;;8.93;;
39314;SDS011;28703;44.412;11.918;2023-06-19T00:03:46;9.90;;;8.98;;
39314;SDS011;28703;44.412;11.918;2023-06-19T00:06:11;10.50;;;9.40;;
39314;SDS011;28703;44.412;11.918;2023-06-19T00:08:38;11.80;;;9.52;;
39314;SDS011;28703;44.412;11.918;2023-06-19T00:11:06;9.88;;;9.00;;
39314;SDS011;28703;44.412;11.918;2023-06-19T00:13:33;9.25;;;8.35;;
39314;SDS011;28703;44.412;11.918;2023-06-19T00:16:02;15.80;;;8.95;;
39314;SDS011;28703;44.412;11.918;2023-06-19T00:18:28;9.25;;;8.35;;
39314;SDS011;28703;44.412;11.918;2023-06-19T00:20:54;8.80;;;8.00;;
39314;SDS011;28703;44.412;11.918;2023-06-19T00:23:24;10.15;;;8.63;;
39314;SDS011;28703;44.412;11.918;2023-06-19T00:25:49;8.60;;;7.65;;
39314;SDS011;28703;44.412;11.918;2023-06-19T00:28:15;10.68;;;8.05;;
39314;SDS011;28703;44.412;11.918;2023-06-19T00:30:45;10.35;;;8.90;;
39314;SDS011;28703;44.412;11.918;2023-06-19T00:33:12;11.90;;;8.55;;
39314;SDS011;28703;44.412;11.918;2023-06-19T00:35:38;10.27;;;9.38;;
39314;SDS011;28703;44.412;11.918;2023-06-19T00:38:07;9.60;;;8.75;;
39314;SDS011;28703;44.412;11.918;2023-06-19T00:40:33;9.80;;;8.77;;
39314;SDS011;28703;44.412;11.918;2023-06-19T00:42:59;11.07;;;8.82;;
39314;SDS011;28703;44.412;11.918;2023-06-19T00:45:25;9.13;;;8.15;;
39314;SDS011;28703;44.412;11.918;2023-06-19T00:47:52;11.60;;;8.82;;
39314;SDS011;28703;44.412;11.918;2023-06-19T00:50:19;9.15;;;8.07;;
39314;SDS011;28703;44.412;11.918;2023-06-19T00:52:49;12.05;;;8.02;;
39314;SDS011;28703;44.412;11.918;2023-06-19T00:55:15;9.48;;;8.57;;
39314;SDS011;28703;44.412;11.918;2023-06-19T00:57:42;9.15;;;8.25;;
39314;SDS011;28703;44.412;11.918;2023-06-19T01:00:09;9.93;;;8.30;;
39314;SDS011;28703;44.412;11.918;2023-06-19T01:02:38;10.68;;;8.52;;
39314;SDS011;28703;44.412;11.918;2023-06-19T01:05:04;9.45;;;8.63;;
39314;SDS011;28703;44.412;11.918;2023-06-19T01:10:06;13.65;;;8.27;;
39314;SDS011;28703;44.412;11.918;2023-06-19T01:12:37;9.35;;;8.05;;
39314;SDS011;28703;44.412;11.918;2023-06-19T01:15:09;9.48;;;8.45;;
39314;SDS011;28703;44.412;11.918;2023-06-19T01:17:36;10.55;;;8.27;;
39314;SDS011;28703;44.412;11.918;2023-06-19T01:20:02;8.63;;;7.78;;
39314;SDS011;28703;44.412;11.918;2023-06-19T01:22:37;8.63;;;7.90;;
39314;SDS011;28703;44.412;11.918;2023-06-19T01:25:04;9.13;;;8.00;;
39314;SDS011;28703;44.412;11.918;2023-06-19T01:27:30;7.90;;;7.10;;
39314;SDS011;28703;44.412;11.918;2023-06-19T01:29:58;9.52;;;7.72;;
39314;SDS011;28703;44.412;11.918;2023-06-19T01:32:31;9.98;;;7.30;;
39314;SDS011;28703;44.412;11.918;2023-06-19T01:35:19;8.45;;;7.65;;
39314;SDS011;28703;44.412;11.918;2023-06-19T01:37:47;11.65;;;7.65;;
39314;SDS011;28703;44.412;11.918;2023-06-19T01:40:14;8.13;;;7.32;;
39314;SDS011;28703;44.412;11.918;2023-06-19T01:42:41;11.48;;;8.85;;
39314;SDS011;28703;44.412;11.918;2023-06-19T01:45:08;8.70;;;7.90;;
39314;SDS011;28703;44.412;11.918;2023-06-19T01:47:35;9.35;;;8.43;;
39314;SDS011;28703;44.412;11.918;2023-06-19T01:50:02;8.95;;;8.00;;
39314;SDS011;28703;44.412;11.918;2023-06-19T01:52:28;8.50;;;7.65;;
39314;SDS011;28703;44.412;11.918;2023-06-19T01:54:54;7.57;;;6.97;;
39314;SDS011;28703;44.412;11.918;2023-06-19T01:57:20;8.38;;;7.60;;
39314;SDS011;28703;44.412;11.918;2023-06-19T01:59:46;7.75;;;6.97;;
39314;SDS011;28703;44.412;11.918;2023-06-19T02:02:12;9.43;;;7.03;;
39314;SDS011;28703;44.412;11.918;2023-06-19T02:04:38;7.28;;;6.63;;
39314;SDS011;28703;44.412;11.918;2023-06-19T02:07:04;7.95;;;7.03;;
39314;SDS011;28703;44.412;11.918;2023-06-19T02:09:30;8.20;;;7.30;;
39314;SDS011;28703;44.412;11.918;2023-06-19T02:11:55;7.63;;;6.93;;
39314;SDS011;28703;44.412;11.918;2023-06-19T02:14:21;8.40;;;6.80;;
39314;SDS011;28703;44.412;11.918;2023-06-19T02:16:48;7.38;;;6.75;;
39314;SDS011;28703;44.412;11.918;2023-06-19T02:19:14;8.10;;;6.05;;
39314;SDS011;28703;44.412;11.918;2023-06-19T02:21:40;8.10;;;7.30;;
39314;SDS011;28703;44.412;11.918;2023-06-19T02:24:06;6.82;;;6.25;;
39314;SDS011;28703;44.412;11.918;2023-06-19T02:26:32;8.25;;;7.47;;
39314;SDS011;28703;44.412;11.918;2023-06-19T02:28:58;7.57;;;6.88;;
39314;SDS011;28703;44.412;11.918;2023-06-19T02:31:24;8.80;;;7.43;;
39314;SDS011;28703;44.412;11.918;2023-06-19T02:33:50;8.32;;;7.57;;
39314;SDS011;28703;44.412;11.918;2023-06-19T02:36:18;9.50;;;7.90;;
39314;SDS011;28703;44.412;11.918;2023-06-19T02:38:45;8.32;;;7.47;;
39314;SDS011;28703;44.412;11.918;2023-06-19T02:41:12;7.65;;;6.90;;
39314;SDS011;28703;44.412;11.918;2023-06-19T02:43:39;9.75;;;6.28;;
39314;SDS011;28703;44.412;11.918;2023-06-19T02:46:06;7.20;;;6.57;;
39314;SDS011;28703;44.412;11.918;2023-06-19T02:48:33;6.50;;;5.90;;
39314;SDS011;28703;44.412;11.918;2023-06-19T02:50:59;7.90;;;6.72;;
39314;SDS011;28703;44.412;11.918;2023-06-19T02:53:25;9.10;;;6.00;;
39314;SDS011;28703;44.412;11.918;2023-06-19T02:55:50;6.97;;;6.30;;
39314;SDS011;28703;44.412;11.918;2023-06-19T02:58:16;10.05;;;6.82;;
39314;SDS011;28703;44.412;11.918;2023-06-19T03:00:42;6.80;;;6.20;;
39314;SDS011;28703;44.412;11.918;2023-06-19T03:03:09;8.15;;;6.63;;
39314;SDS011;28703;44.412;11.918;2023-06-19T03:05:35;8.82;;;6.72;;
39314;SDS011;28703;44.412;11.918;2023-06-19T03:08:01;11.93;;;6.93;;
39314;SDS011;28703;44.412;11.918;2023-06-19T03:10:27;7.88;;;6.90;;
39314;SDS011;28703;44.412;11.918;2023-06-19T03:12:53;11.20;;;6.85;;
39314;SDS011;28703;44.412;11.918;2023-06-19T03:15:31;7.70;;;6.40;;
39314;SDS011;28703;44.412;11.918;2023-06-19T03:20:58;7.63;;;6.72;;
39314;SDS011;28703;44.412;11.918;2023-06-19T03:23:25;10.13;;;6.75;;
39314;SDS011;28703;44.412;11.918;2023-06-19T03:26:00;15.35;;;6.65;;
39314;SDS011;28703;44.412;11.918;2023-06-19T03:28:27;7.78;;;6.82;;
39314;SDS011;28703;44.412;11.918;2023-06-19T03:30:54;7.35;;;6.65;;
39314;SDS011;28703;44.412;11.918;2023-06-19T03:33:23;7.18;;;6.47;;
39314;SDS011;28703;44.412;11.918;2023-06-19T03:35:49;9.23;;;7.18;;
39314;SDS011;28703;44.412;11.918;2023-06-19T03:38:35;13.73;;;7.38;;
39314;SDS011;28703;44.412;11.918;2023-06-19T03:41:01;10.18;;;7.18;;
39314;SDS011;28703;44.412;11.918;2023-06-19T03:43:27;7.88;;;7.07;;
39314;SDS011;28703;44.412;11.918;2023-06-19T03:45:53;9.07;;;7.43;;
39314;SDS011;28703;44.412;11.918;2023-06-19T03:48:19;10.13;;;8.18;;
39314;SDS011;28703;44.412;11.918;2023-06-19T03:50:45;11.63;;;8.20;;
39314;SDS011;28703;44.412;11.918;2023-06-19T03:53:11;7.90;;;7.20;;
39314;SDS011;28703;44.412;11.918;2023-06-19T03:55:37;9.52;;;6.60;;
39314;SDS011;28703;44.412;11.918;2023-06-19T03:58:03;8.48;;;7.13;;
39314;SDS011;28703;44.412;11.918;2023-06-19T04:00:29;8.50;;;6.97;;
39314;SDS011;28703;44.412;11.918;2023-06-19T04:02:55;8.23;;;6.72;;
39314;SDS011;28703;44.412;11.918;2023-06-19T04:05:21;6.82;;;6.15;;
39314;SDS011;28703;44.412;11.918;2023-06-19T04:07:48;10.85;;;6.03;;
39314;SDS011;28703;44.412;11.918;2023-06-19T04:10:14;6.80;;;6.13;;
39314;SDS011;28703;44.412;11.918;2023-06-19T04:12:40;8.13;;;6.07;;
39314;SDS011;28703;44.412;11.918;2023-06-19T04:15:06;6.53;;;6.03;;
39314;SDS011;28703;44.412;11.918;2023-06-19T04:17:33;12.65;;;6.40;;
39314;SDS011;28703;44.412;11.918;2023-06-19T04:19:59;7.40;;;6.07;;
39314;SDS011;28703;44.412;11.918;2023-06-19T04:22:25;7.03;;;6.43;;
39314;SDS011;28703;44.412;11.918;2023-06-19T04:24:51;7.00;;;6.30;;
39314;SDS011;28703;44.412;11.918;2023-06-19T04:27:17;7.80;;;6.13;;
39314;SDS011;28703;44.412;11.918;2023-06-19T04:29:43;7.15;;;5.70;;
39314;SDS011;28703;44.412;11.918;2023-06-19T04:32:09;11.45;;;6.55;;
39314;SDS011;28703;44.412;11.918;2023-06-19T04:34:38;7.10;;;6.30;;
39314;SDS011;28703;44.412;11.918;2023-06-19T04:37:04;7.50;;;5.95;;
39314;SDS011;28703;44.412;11.918;2023-06-19T04:39:30;6.00;;;5.50;;
39314;SDS011;28703;44.412;11.918;2023-06-19T04:41:56;7.20;;;5.53;;
39314;SDS011;28703;44.412;11.918;2023-06-19T04:44:22;11.45;;;5.68;;
39314;SDS011;28703;44.412;11.918;2023-06-19T04:46:48;6.80;;;5.78;;
39314;SDS011;28703;44.412;11.918;2023-06-19T04:49:13;9.38;;;5.82;;
39314;SDS011;28703;44.412;11.918;2023-06-19T04:51:40;5.80;;;5.35;;
39314;SDS011;28703;44.412;11.918;2023-06-19T04:54:06;5.95;;;5.45;;
39314;SDS011;28703;44.412;11.918;2023-06-19T04:56:32;7.13;;;5.55;;
39314;SDS011;28703;44.412;11.918;2023-06-19T04:58:58;10.00;;;6.03;;
39314;SDS011;28703;44.412;11.918;2023-06-19T05:01:27;8.60;;;5.70;;
39314;SDS011;28703;44.412;11.918;2023-06-19T05:03:54;9.70;;;6.22;;
39314;SDS011;28703;44.412;11.918;2023-06-19T05:06:22;8.82;;;5.78;;
39314;SDS011;28703;44.412;11.918;2023-06-19T05:08:48;6.10;;;5.50;;
39314;SDS011;28703;44.412;11.918;2023-06-19T05:11:14;11.77;;;4.88;;
39314;SDS011;28703;44.412;11.918;2023-06-19T05:13:40;6.78;;;5.18;;
39314;SDS011;28703;44.412;11.918;2023-06-19T05:16:06;5.60;;;5.10;;
39314;SDS011;28703;44.412;11.918;2023-06-19T05:18:32;7.43;;;5.05;;
39314;SDS011;28703;44.412;11.918;2023-06-19T05:20:58;5.45;;;4.68;;
39314;SDS011;28703;44.412;11.918;2023-06-19T05:23:24;6.78;;;5.38;;
39314;SDS011;28703;44.412;11.918;2023-06-19T05:25:50;6.00;;;5.50;;
39314;SDS011;28703;44.412;11.918;2023-06-19T05:28:16;6.20;;;5.10;;
39314;SDS011;28703;44.412;11.918;2023-06-19T05:30:42;5.40;;;4.93;;
39314;SDS011;28703;44.412;11.918;2023-06-19T05:33:07;20.50;;;5.25;;
39314;SDS011;28703;44.412;11.918;2023-06-19T05:35:34;9.35;;;5.43;;
39314;SDS011;28703;44.412;11.918;2023-06-19T05:38:00;6.55;;;4.97;;
39314;SDS011;28703;44.412;11.918;2023-06-19T05:40:26;18.55;;;5.15;;
39314;SDS011;28703;44.412;11.918;2023-06-19T05:42:53;5.13;;;4.72;;
39314;SDS011;28703;44.412;11.918;2023-06-19T05:45:20;6.70;;;5.05;;
39314;SDS011;28703;44.412;11.918;2023-06-19T05:47:46;7.88;;;5.45;;
39314;SDS011;28703;44.412;11.918;2023-06-19T05:50:12;5.38;;;4.97;;
39314;SDS011;28703;44.412;11.918;2023-06-19T05:52:38;7.68;;;4.75;;
39314;SDS011;28703;44.412;11.918;2023-06-19T05:55:08;7.00;;;5.55;;
39314;SDS011;28703;44.412;11.918;2023-06-19T05:57:34;7.95;;;5.25;;
39314;SDS011;28703;44.412;11.918;2023-06-19T06:00:00;8.80;;;5.50;;
39314;SDS011;28703;44.412;11.918;2023-06-19T06:02:26;7.80;;;4.60;;
39314;SDS011;28703;44.412;11.918;2023-06-19T06:04:53;4.80;;;4.40;;
39314;SDS011;28703;44.412;11.918;2023-06-19T06:07:21;7.55;;;4.63;;
39314;SDS011;28703;44.412;11.918;2023-06-19T06:09:47;6.22;;;4.53;;
39314;SDS011;28703;44.412;11.918;2023-06-19T06:12:13;4.90;;;4.45;;
39314;SDS011;28703;44.412;11.918;2023-06-19T06:14:40;11.90;;;4.65;;
39314;SDS011;28703;44.412;11.918;2023-06-19T06:17:06;5.07;;;4.47;;
39314;SDS011;28703;44.412;11.918;2023-06-19T06:19:32;4.72;;;4.32;;
39314;SDS011;28703;44.412;11.918;2023-06-19T06:21:58;7.78;;;4.90;;
39314;SDS011;28703;44.412;11.918;2023-06-19T06:24:24;9.80;;;4.93;;
39314;SDS011;28703;44.412;11.918;2023-06-19T06:26:50;11.23;;;5.35;;
39314;SDS011;28703;44.412;11.918;2023-06-19T06:29:16;6.53;;;4.47;;
39314;SDS011;28703;44.412;11.918;2023-06-19T06:31:45;5.72;;;4.75;;
39314;SDS011;28703;44.412;11.918;2023-06-19T06:34:12;11.65;;;5.18;;
39314;SDS011;28703;44.412;11.918;2023-06-19T06:36:38;6.47;;;4.72;;
39314;SDS011;28703;44.412;11.918;2023-06-19T06:39:04;8.15;;;4.97;;
39314;SDS011;28703;44.412;11.918;2023-06-19T06:41:31;6.07;;;5.03;;
39314;SDS011;28703;44.412;11.918;2023-06-19T06:43:57;8.65;;;4.75;;
39314;SDS011;28703;44.412;11.918;2023-06-19T06:46:23;7.75;;;5.22;;
39314;SDS011;28703;44.412;11.918;2023-06-19T06:48:49;7.82;;;4.50;;
39314;SDS011;28703;44.412;11.918;2023-06-19T06:51:15;5.35;;;4.85;;
39314;SDS011;28703;44.412;11.918;2023-06-19T06:53:41;7.60;;;4.78;;
39314;SDS011;28703;44.412;11.918;2023-06-19T06:56:07;5.40;;;4.43;;
39314;SDS011;28703;44.412;11.918;2023-06-19T06:58:33;10.40;;;5.28;;
39314;SDS011;28703;44.412;11.918;2023-06-19T07:00:59;7.43;;;4.40;;
39314;SDS011;28703;44.412;11.918;2023-06-19T07:03:24;6.90;;;5.32;;
39314;SDS011;28703;44.412;11.918;2023-06-19T07:05:50;9.15;;;4.95;;
39314;SDS011;28703;44.412;11.918;2023-06-19T07:08:16;7.65;;;5.40;;
39314;SDS011;28703;44.412;11.918;2023-06-19T07:10:42;9.25;;;4.72;;
39314;SDS011;28703;44.412;11.918;2023-06-19T07:13:09;6.10;;;4.70;;
39314;SDS011;28703;44.412;11.918;2023-06-19T07:15:35;9.07;;;5.55;;
39314;SDS011;28703;44.412;11.918;2023-06-19T07:18:00;8.63;;;6.22;;
39314;SDS011;28703;44.412;11.918;2023-06-19T07:20:26;5.70;;;4.63;;
39314;SDS011;28703;44.412;11.918;2023-06-19T07:22:52;6.85;;;4.70;;
39314;SDS011;28703;44.412;11.918;2023-06-19T07:25:18;5.18;;;4.47;;
39314;SDS011;28703;44.412;11.918;2023-06-19T07:27:44;6.75;;;4.82;;
39314;SDS011;28703;44.412;11.918;2023-06-19T07:30:10;5.10;;;4.68;;
39314;SDS011;28703;44.412;11.918;2023-06-19T07:32:37;7.38;;;4.63;;
39314;SDS011;28703;44.412;11.918;2023-06-19T07:35:03;5.95;;;4.00;;
39314;SDS011;28703;44.412;11.918;2023-06-19T07:37:30;6.68;;;4.80;;
39314;SDS011;28703;44.412;11.918;2023-06-19T07:39:55;7.03;;;4.78;;
39314;SDS011;28703;44.412;11.918;2023-06-19T07:42:21;10.52;;;5.20;;
39314;SDS011;28703;44.412;11.918;2023-06-19T07:44:47;9.48;;;4.80;;
39314;SDS011;28703;44.412;11.918;2023-06-19T07:47:15;8.13;;;5.10;;
39314;SDS011;28703;44.412;11.918;2023-06-19T07:49:43;14.95;;;7.13;;
39314;SDS011;28703;44.412;11.918;2023-06-19T07:52:09;11.77;;;9.35;;
39314;SDS011;28703;44.412;11.918;2023-06-19T07:54:35;18.17;;;7.00;;
39314;SDS011;28703;44.412;11.918;2023-06-19T07:57:02;8.52;;;6.03;;
39314;SDS011;28703;44.412;11.918;2023-06-19T07:59:27;8.40;;;5.13;;
39314;SDS011;28703;44.412;11.918;2023-06-19T08:01:53;12.90;;;5.55;;
39314;SDS011;28703;44.412;11.918;2023-06-19T08:04:19;9.82;;;4.97;;
39314;SDS011;28703;44.412;11.918;2023-06-19T08:06:45;9.07;;;5.18;;
39314;SDS011;28703;44.412;11.918;2023-06-19T08:09:11;5.15;;;4.70;;
39314;SDS011;28703;44.412;11.918;2023-06-19T08:11:37;5.43;;;4.93;;
39314;SDS011;28703;44.412;11.918;2023-06-19T08:14:03;15.30;;;7.93;;
39314;SDS011;28703;44.412;11.918;2023-06-19T08:16:29;19.70;;;7.18;;
39314;SDS011;28703;44.412;11.918;2023-06-19T08:18:54;5.18;;;4.38;;
39314;SDS011;28703;44.412;11.918;2023-06-19T08:21:20;9.30;;;4.70;;
39314;SDS011;28703;44.412;11.918;2023-06-19T08:23:47;8.93;;;5.07;;
39314;SDS011;28703;44.412;11.918;2023-06-19T08:26:13;6.47;;;5.25;;
39314;SDS011;28703;44.412;11.918;2023-06-19T08:28:39;10.50;;;4.93;;
39314;SDS011;28703;44.412;11.918;2023-06-19T08:31:06;6.28;;;4.55;;
39314;SDS011;28703;44.412;11.918;2023-06-19T08:33:34;10.65;;;4.63;;
39314;SDS011;28703;44.412;11.918;2023-06-19T08:36:00;4.60;;;4.20;;
39314;SDS011;28703;44.412;11.918;2023-06-19T08:38:26;5.22;;;4.00;;
39314;SDS011;28703;44.412;11.918;2023-06-19T08:40:52;5.30;;;4.35;;
39314;SDS011;28703;44.412;11.918;2023-06-19T08:43:20;5.45;;;4.47;;
39314;SDS011;28703;44.412;11.918;2023-06-19T08:46:03;6.35;;;4.82;;
39314;SDS011;28703;44.412;11.918;2023-06-19T08:48:38;7.25;;;5.07;;
39314;SDS011;28703;44.412;11.918;2023-06-19T08:51:04;4.55;;;4.20;;
39314;SDS011;28703;44.412;11.918;2023-06-19T08:53:34;10.75;;;5.22;;
39314;SDS011;28703;44.412;11.918;2023-06-19T08:56:04;8.73;;;4.57;;
39314;SDS011;28703;44.412;11.918;2023-06-19T08:58:30;7.45;;;4.60;;
39314;SDS011;28703;44.412;11.918;2023-06-19T09:00:59;7.57;;;5.00;;
39314;SDS011;28703;44.412;11.918;2023-06-19T09:03:24;6.32;;;5.10;;
39314;SDS011;28703;44.412;11.918;2023-06-19T09:05:50;4.45;;;4.10;;
39314;SDS011;28703;44.412;11.918;2023-06-19T09:08:17;7.57;;;5.18;;
39314;SDS011;28703;44.412;11.918;2023-06-19T09:13:43;6.07;;;5.10;;
39314;SDS011;28703;44.412;11.918;2023-06-19T09:16:09;9.85;;;5.82;;
39314;SDS011;28703;44.412;11.918;2023-06-19T09:18:45;6.45;;;5.20;;
39314;SDS011;28703;44.412;11.918;2023-06-19T09:21:15;6.80;;;4.97;;
39314;SDS011;28703;44.412;11.918;2023-06-19T09:23:47;7.88;;;6.35;;
39314;SDS011;28703;44.412;11.918;2023-06-19T09:26:14;7.00;;;5.70;;
39314;SDS011;28703;44.412;11.918;2023-06-19T09:28:41;5.75;;;4.47;;
39314;SDS011;28703;44.412;11.918;2023-06-19T09:31:08;9.52;;;4.80;;
39314;SDS011;28703;44.412;11.918;2023-06-19T09:33:34;5.43;;;4.50;;
39314;SDS011;28703;44.412;11.918;2023-06-19T09:36:01;4.75;;;4.30;;
39314;SDS011;28703;44.412;11.918;2023-06-19T09:38:29;6.75;;;4.85;;
39314;SDS011;28703;44.412;11.918;2023-06-19T09:41:00;7.05;;;4.82;;
39314;SDS011;28703;44.412;11.918;2023-06-19T09:43:43;5.28;;;4.60;;
39314;SDS011;28703;44.412;11.918;2023-06-19T09:46:11;9.60;;;4.60;;
39314;SDS011;28703;44.412;11.918;2023-06-19T09:48:41;21.15;;;4.80;;
39314;SDS011;28703;44.412;11.918;2023-06-19T09:51:19;6.72;;;4.30;;
39314;SDS011;28703;44.412;11.918;2023-06-19T09:53:53;5.68;;;4.50;;
39314;SDS011;28703;44.412;11.918;2023-06-19T09:56:21;6.20;;;5.15;;
39314;SDS011;28703;44.412;11.918;2023-06-19T09:58:50;7.55;;;4.47;;
39314;SDS011;28703;44.412;11.918;2023-06-19T10:01:18;9.93;;;5.22;;
39314;SDS011;28703;44.412;11.918;2023-06-19T10:03:45;6.65;;;4.80;;
39314;SDS011;28703;44.412;11.918;2023-06-19T10:06:15;7.32;;;4.63;;
39314;SDS011;28703;44.412;11.918;2023-06-19T10:08:43;12.65;;;5.07;;
39314;SDS011;28703;44.412;11.918;2023-06-19T10:11:10;6.50;;;5.50;;
39314;SDS011;28703;44.412;11.918;2023-06-19T10:13:37;6.40;;;5.38;;
39314;SDS011;28703;44.412;11.918;2023-06-19T10:16:05;5.57;;;5.07;;
39314;SDS011;28703;44.412;11.918;2023-06-19T10:18:52;10.18;;;5.15;;
39314;SDS011;28703;44.412;11.918;2023-06-19T10:21:18;8.05;;;6.60;;
39314;SDS011;28703;44.412;11.918;2023-06-19T10:24:18;5.05;;;4.65;;
39314;SDS011;28703;44.412;11.918;2023-06-19T10:26:43;5.45;;;4.50;;
39314;SDS011;28703;44.412;11.918;2023-06-19T10:29:18;6.85;;;4.53;;
39314;SDS011;28703;44.412;11.918;2023-06-19T10:31:44;4.90;;;4.50;;
39314;SDS011;28703;44.412;11.918;2023-06-19T10:34:10;7.00;;;4.78;;
39314;SDS011;28703;44.412;11.918;2023-06-19T10:36:37;7.53;;;4.72;;
39314;SDS011;28703;44.412;11.918;2023-06-19T10:39:03;5.90;;;4.28;;
39314;SDS011;28703;44.412;11.918;2023-06-19T10:41:29;5.15;;;4.40;;
39314;SDS011;28703;44.412;11.918;2023-06-19T10:44:01;5.75;;;4.80;;
39314;SDS011;28703;44.412;11.918;2023-06-19T10:46:34;4.85;;;4.32;;
39314;SDS011;28703;44.412;11.918;2023-06-19T10:49:01;5.33;;;4.87;;
39314;SDS011;28703;44.412;11.918;2023-06-19T10:51:39;5.57;;;5.10;;
39314;SDS011;28703;44.412;11.918;2023-06-19T10:54:08;9.35;;;5.40;;
39314;SDS011;28703;44.412;11.918;2023-06-19T10:56:35;5.43;;;4.90;;
39314;SDS011;28703;44.412;11.918;2023-06-19T10:59:02;6.93;;;4.85;;
39314;SDS011;28703;44.412;11.918;2023-06-19T11:04:01;5.03;;;4.40;;
39314;SDS011;28703;44.412;11.918;2023-06-19T11:06:31;4.97;;;4.30;;
39314;SDS011;28703;44.412;11.918;2023-06-19T11:08:58;7.00;;;6.38;;
39314;SDS011;28703;44.412;11.918;2023-06-19T11:11:42;15.02;;;5.93;;
39314;SDS011;28703;44.412;11.918;2023-06-19T11:14:13;6.80;;;4.80;;
39314;SDS011;28703;44.412;11.918;2023-06-19T11:16:41;7.40;;;5.15;;
39314;SDS011;28703;44.412;11.918;2023-06-19T11:19:15;6.20;;;4.28;;
39314;SDS011;28703;44.412;11.918;2023-06-19T11:21:44;6.22;;;4.60;;
39314;SDS011;28703;44.412;11.918;2023-06-19T11:24:13;4.75;;;4.35;;
39314;SDS011;28703;44.412;11.918;2023-06-19T11:26:40;9.95;;;5.07;;
39314;SDS011;28703;44.412;11.918;2023-06-19T11:32:07;5.07;;;4.53;;
39314;SDS011;28703;44.412;11.918;2023-06-19T11:34:38;4.97;;;4.28;;
39314;SDS011;28703;44.412;11.918;2023-06-19T11:37:17;5.65;;;4.80;;
39314;SDS011;28703;44.412;11.918;2023-06-19T11:39:44;7.72;;;4.70;;
39314;SDS011;28703;44.412;11.918;2023-06-19T11:42:11;4.50;;;4.10;;
39314;SDS011;28703;44.412;11.918;2023-06-19T11:44:53;4.82;;;4.40;;
39314;SDS011;28703;44.412;11.918;2023-06-19T11:47:19;6.18;;;4.68;;
39314;SDS011;28703;44.412;11.918;2023-06-19T11:49:47;4.80;;;4.30;;
39314;SDS011;28703;44.412;11.918;2023-06-19T11:52:14;6.63;;;4.38;;
39314;SDS011;28703;44.412;11.918;2023-06-19T11:54:40;5.65;;;4.50;;
39314;SDS011;28703;44.412;11.918;2023-06-19T11:57:06;4.63;;;4.25;;
39314;SDS011;28703;44.412;11.918;2023-06-19T11:59:38;8.75;;;6.22;;
39314;SDS011;28703;44.412;11.918;2023-06-19T12:02:08;7.13;;;5.07;;
39314;SDS011;28703;44.412;11.918;2023-06-19T12:04:35;7.45;;;5.93;;
39314;SDS011;28703;44.412;11.918;2023-06-19T12:07:01;6.13;;;5.53;;
39314;SDS011;28703;44.412;11.918;2023-06-19T12:09:29;8.65;;;6.10;;
39314;SDS011;28703;44.412;11.918;2023-06-19T12:11:55;11.65;;;7.15;;
39314;SDS011;28703;44.412;11.918;2023-06-19T12:14:21;7.40;;;4.95;;
39314;SDS011;28703;44.412;11.918;2023-06-19T12:16:49;5.18;;;4.15;;
39314;SDS011;28703;44.412;11.918;2023-06-19T12:19:16;6.40;;;4.32;;
39314;SDS011;28703;44.412;11.918;2023-06-19T12:21:42;5.10;;;4.65;;
39314;SDS011;28703;44.412;11.918;2023-06-19T12:24:07;5.32;;;4.55;;
39314;SDS011;28703;44.412;11.918;2023-06-19T12:26:34;6.75;;;4.47;;
39314;SDS011;28703;44.412;11.918;2023-06-19T12:29:04;6.68;;;4.63;;
39314;SDS011;28703;44.412;11.918;2023-06-19T12:31:32;6.13;;;5.53;;
39314;SDS011;28703;44.412;11.918;2023-06-19T12:33:59;6.47;;;5.00;;
39314;SDS011;28703;44.412;11.918;2023-06-19T12:36:26;5.82;;;3.95;;
39314;SDS011;28703;44.412;11.918;2023-06-19T12:38:53;4.85;;;4.45;;
39314;SDS011;28703;44.412;11.918;2023-06-19T12:41:21;5.53;;;4.90;;
39314;SDS011;28703;44.412;11.918;2023-06-19T12:43:47;7.05;;;4.18;;
39314;SDS011;28703;44.412;11.918;2023-06-19T12:46:15;6.80;;;4.00;;
39314;SDS011;28703;44.412;11.918;2023-06-19T12:48:43;4.43;;;4.03;;
39314;SDS011;28703;44.412;11.918;2023-06-19T12:51:18;5.60;;;3.92;;
39314;SDS011;28703;44.412;11.918;2023-06-19T12:53:45;4.22;;;3.75;;
39314;SDS011;28703;44.412;11.918;2023-06-19T12:56:12;4.22;;;3.92;;
39314;SDS011;28703;44.412;11.918;2023-06-19T12:58:39;4.20;;;3.90;;
39314;SDS011;28703;44.412;11.918;2023-06-19T13:01:06;4.43;;;3.72;;
39314;SDS011;28703;44.412;11.918;2023-06-19T13:03:33;4.20;;;3.90;;
39314;SDS011;28703;44.412;11.918;2023-06-19T13:05:59;5.53;;;4.05;;
39314;SDS011;28703;44.412;11.918;2023-06-19T13:08:25;4.10;;;3.70;;
39314;SDS011;28703;44.412;11.918;2023-06-19T13:10:50;4.47;;;4.18;;
39314;SDS011;28703;44.412;11.918;2023-06-19T13:13:16;4.47;;;4.07;;
39314;SDS011;28703;44.412;11.918;2023-06-19T13:15:42;8.50;;;4.82;;
39314;SDS011;28703;44.412;11.918;2023-06-19T13:18:08;4.70;;;4.25;;
39314;SDS011;28703;44.412;11.918;2023-06-19T13:20:34;6.40;;;4.80;;
39314;SDS011;28703;44.412;11.918;2023-06-19T13:23:00;4.88;;;4.13;;
39314;SDS011;28703;44.412;11.918;2023-06-19T13:25:26;4.50;;;4.18;;
39314;SDS011;28703;44.412;11.918;2023-06-19T13:27:51;4.30;;;4.00;;
39314;SDS011;28703;44.412;11.918;2023-06-19T13:30:18;4.63;;;4.00;;
39314;SDS011;28703;44.412;11.918;2023-06-19T13:32:44;5.78;;;4.18;;
39314;SDS011;28703;44.412;11.918;2023-06-19T13:35:10;6.55;;;4.35;;
39314;SDS011;28703;44.412;11.918;2023-06-19T13:37:36;6.32;;;4.15;;
39314;SDS011;28703;44.412;11.918;2023-06-19T13:40:06;4.72;;;4.32;;
39314;SDS011;28703;44.412;11.918;2023-06-19T13:42:33;4.43;;;4.13;;
39314;SDS011;28703;44.412;11.918;2023-06-19T13:45:00;4.93;;;4.53;;
39314;SDS011;28703;44.412;11.918;2023-06-19T13:47:27;4.72;;;4.20;;
39314;SDS011;28703;44.412;11.918;2023-06-19T13:49:53;6.45;;;4.60;;
39314;SDS011;28703;44.412;11.918;2023-06-19T13:52:19;4.28;;;3.88;;
39314;SDS011;28703;44.412;11.918;2023-06-19T13:54:45;11.25;;;4.38;;
39314;SDS011;28703;44.412;11.918;2023-06-19T13:57:11;4.30;;;4.00;;
39314;SDS011;28703;44.412;11.918;2023-06-19T13:59:37;4.70;;;4.30;;
39314;SDS011;28703;44.412;11.918;2023-06-19T14:02:03;5.00;;;4.38;;
39314;SDS011;28703;44.412;11.918;2023-06-19T14:04:29;4.18;;;3.88;;
39314;SDS011;28703;44.412;11.918;2023-06-19T14:06:55;5.18;;;4.20;;
39314;SDS011;28703;44.412;11.918;2023-06-19T14:09:21;4.43;;;4.07;;
39314;SDS011;28703;44.412;11.918;2023-06-19T14:11:47;5.05;;;4.55;;
39314;SDS011;28703;44.412;11.918;2023-06-19T14:14:12;4.78;;;4.38;;
39314;SDS011;28703;44.412;11.918;2023-06-19T14:16:38;4.65;;;4.32;;
39314;SDS011;28703;44.412;11.918;2023-06-19T14:19:04;4.65;;;4.28;;
39314;SDS011;28703;44.412;11.918;2023-06-19T14:21:30;4.45;;;4.05;;
39314;SDS011;28703;44.412;11.918;2023-06-19T14:23:56;5.32;;;4.18;;
39314;SDS011;28703;44.412;11.918;2023-06-19T14:26:22;5.28;;;4.28;;
39314;SDS011;28703;44.412;11.918;2023-06-19T14:28:48;4.45;;;4.10;;
39314;SDS011;28703;44.412;11.918;2023-06-19T14:31:14;5.53;;;5.03;;
39314;SDS011;28703;44.412;11.918;2023-06-19T14:33:40;5.10;;;4.20;;
39314;SDS011;28703;44.412;11.918;2023-06-19T14:36:06;5.68;;;4.60;;
39314;SDS011;28703;44.412;11.918;2023-06-19T14:38:32;6.40;;;4.32;;
39314;SDS011;28703;44.412;11.918;2023-06-19T14:41:01;5.05;;;4.32;;
39314;SDS011;28703;44.412;11.918;2023-06-19T14:43:28;4.93;;;3.88;;
39314;SDS011;28703;44.412;11.918;2023-06-19T14:45:54;5.95;;;4.47;;
39314;SDS011;28703;44.412;11.918;2023-06-19T14:48:20;6.43;;;4.72;;